sensor_id;sensor_type;location;lat;lon;timestamp;temperature;humidity
19868;DHT22;10096;51.112;6.776;2023-03-16T00:01:26;3.80;1.00
19868;DHT22;10096;51.112;6.776;2023-03-16T00:03:53;3.70;1.00
19868;DHT22;10096;51.112;6.776;2023-03-16T00:06:20;4.00;1.00
19868;DHT22;10096;51.112;6.776;2023-03-16T00:08:47;3.80;1.00
19868;DHT22;10096;51.112;6.776;2023-03-16T00:11:15;3.80;1.00
19868;DHT22;10096;51.112;6.776;2023-03-16T00:13:42;3.90;1.00
19868;DHT22;10096;51.112;6.776;2023-03-16T00:16:09;3.80;1.00
19868;DHT22;10096;51.112;6.776;2023-03-16T00:18:41;3.80;1.00
19868;DHT22;10096;51.112;6.776;2023-03-16T00:21:09;3.80;1.00
19868;DHT22;10096;51.112;6.776;2023-03-16T00:23:36;3.90;1.00
19868;DHT22;10096;51.112;6.776;2023-03-16T00:26:05;3.90;1.00
19868;DHT22;10096;51.112;6.776;2023-03-16T00:28:34;3.90;1.00
19868;DHT22;10096;51.112;6.776;2023-03-16T00:31:02;4.00;1.00
19868;DHT22;10096;51.112;6.776;2023-03-16T00:33:29;3.90;1.00
19868;DHT22;10096;51.112;6.776;2023-03-16T00:36:03;3.90;1.00
19868;DHT22;10096;51.112;6.776;2023-03-16T00:38:34;3.90;1.00
19868;DHT22;10096;51.112;6.776;2023-03-16T00:41:03;3.90;1.00
19868;DHT22;10096;51.112;6.776;2023-03-16T00:43:30;3.90;1.00
19868;DHT22;10096;51.112;6.776;2023-03-16T00:46:07;4.00;1.00
19868;DHT22;10096;51.112;6.776;2023-03-16T00:48:35;4.20;1.00
19868;DHT22;10096;51.112;6.776;2023-03-16T00:51:05;4.00;1.00
19868;DHT22;10096;51.112;6.776;2023-03-16T00:53:32;4.00;1.00
19868;DHT22;10096;51.112;6.776;2023-03-16T00:56:00;3.90;1.00
19868;DHT22;10096;51.112;6.776;2023-03-16T00:58:28;3.90;1.00
19868;DHT22;10096;51.112;6.776;2023-03-16T01:01:00;4.00;1.00
19868;DHT22;10096;51.112;6.776;2023-03-16T01:03:31;3.90;1.00
19868;DHT22;10096;51.112;6.776;2023-03-16T01:06:03;4.20;1.00
19868;DHT22;10096;51.112;6.776;2023-03-16T01:08:30;3.90;1.00
19868;DHT22;10096;51.112;6.776;2023-03-16T01:11:01;3.90;1.00
19868;DHT22;10096;51.112;6.776;2023-03-16T01:13:29;3.90;1.00
19868;DHT22;10096;51.112;6.776;2023-03-16T01:15:58;4.00;1.00
19868;DHT22;10096;51.112;6.776;2023-03-16T01:18:26;4.20;1.00
19868;DHT22;10096;51.112;6.776;2023-03-16T01:20:56;4.00;1.00
19868;DHT22;10096;51.112;6.776;2023-03-16T01:23:23;4.10;1.00
19868;DHT22;10096;51.112;6.776;2023-03-16T01:25:51;3.90;1.00
19868;DHT22;10096;51.112;6.776;2023-03-16T01:28:19;3.90;1.00
19868;DHT22;10096;51.112;6.776;2023-03-16T01:30:49;4.10;1.00
19868;DHT22;10096;51.112;6.776;2023-03-16T01:33:18;3.90;1.00
19868;DHT22;10096;51.112;6.776;2023-03-16T01:35:51;4.10;1.00
19868;DHT22;10096;51.112;6.776;2023-03-16T01:38:20;3.90;1.00
19868;DHT22;10096;51.112;6.776;2023-03-16T01:40:47;3.90;1.00
19868;DHT22;10096;51.112;6.776;2023-03-16T01:43:17;4.00;1.00
19868;DHT22;10096;51.112;6.776;2023-03-16T01:46:16;4.00;1.00
19868;DHT22;10096;51.112;6.776;2023-03-16T01:48:48;4.10;1.00
19868;DHT22;10096;51.112;6.776;2023-03-16T01:51:19;4.10;1.00
19868;DHT22;10096;51.112;6.776;2023-03-16T01:53:51;4.00;1.00
19868;DHT22;10096;51.112;6.776;2023-03-16T01:56:23;4.10;1.00
19868;DHT22;10096;51.112;6.776;2023-03-16T01:58:52;4.10;1.00
19868;DHT22;10096;51.112;6.776;2023-03-16T02:01:24;4.00;1.00
19868;DHT22;10096;51.112;6.776;2023-03-16T02:03:54;4.00;1.00
19868;DHT22;10096;51.112;6.776;2023-03-16T02:06:23;4.20;1.00
19868;DHT22;10096;51.112;6.776;2023-03-16T02:08:52;4.00;1.00
19868;DHT22;10096;51.112;6.776;2023-03-16T02:11:21;4.00;1.00
19868;DHT22;10096;51.112;6.776;2023-03-16T02:13:49;4.00;1.00
19868;DHT22;10096;51.112;6.776;2023-03-16T02:16:18;4.00;1.00
19868;DHT22;10096;51.112;6.776;2023-03-16T02:18:47;3.90;1.00
19868;DHT22;10096;51.112;6.776;2023-03-16T02:21:19;4.00;1.00
19868;DHT22;10096;51.112;6.776;2023-03-16T02:23:51;4.00;1.00
19868;DHT22;10096;51.112;6.776;2023-03-16T02:26:25;3.90;1.00
19868;DHT22;10096;51.112;6.776;2023-03-16T02:29:05;3.90;1.00
19868;DHT22;10096;51.112;6.776;2023-03-16T02:31:37;3.90;1.00
19868;DHT22;10096;51.112;6.776;2023-03-16T02:34:06;3.80;1.00
19868;DHT22;10096;51.112;6.776;2023-03-16T02:36:33;3.80;1.00
19868;DHT22;10096;51.112;6.776;2023-03-16T02:39:01;3.80;1.00
19868;DHT22;10096;51.112;6.776;2023-03-16T02:41:28;3.70;1.00
19868;DHT22;10096;51.112;6.776;2023-03-16T02:44:00;3.80;1.00
19868;DHT22;10096;51.112;6.776;2023-03-16T02:46:29;3.80;1.00
19868;DHT22;10096;51.112;6.776;2023-03-16T02:49:05;4.00;1.00
19868;DHT22;10096;51.112;6.776;2023-03-16T02:51:33;3.80;1.00
19868;DHT22;10096;51.112;6.776;2023-03-16T02:54:00;3.80;1.00
19868;DHT22;10096;51.112;6.776;2023-03-16T02:56:29;3.80;1.00
19868;DHT22;10096;51.112;6.776;2023-03-16T02:58:56;3.90;1.00
19868;DHT22;10096;51.112;6.776;2023-03-16T03:01:23;4.10;1.00
19868;DHT22;10096;51.112;6.776;2023-03-16T03:03:50;3.90;1.00
19868;DHT22;10096;51.112;6.776;2023-03-16T03:06:18;4.10;1.00
19868;DHT22;10096;51.112;6.776;2023-03-16T03:08:45;3.90;1.00
19868;DHT22;10096;51.112;6.776;2023-03-16T03:11:13;4.00;1.00
19868;DHT22;10096;51.112;6.776;2023-03-16T03:13:40;4.00;1.00
19868;DHT22;10096;51.112;6.776;2023-03-16T03:16:09;4.00;1.00
19868;DHT22;10096;51.112;6.776;2023-03-16T03:18:36;4.00;1.00
19868;DHT22;10096;51.112;6.776;2023-03-16T03:21:03;4.10;1.00
19868;DHT22;10096;51.112;6.776;2023-03-16T03:23:32;4.10;1.00
19868;DHT22;10096;51.112;6.776;2023-03-16T03:26:01;4.10;1.00
19868;DHT22;10096;51.112;6.776;2023-03-16T03:28:29;4.00;1.00
19868;DHT22;10096;51.112;6.776;2023-03-16T03:30:59;4.00;1.00
19868;DHT22;10096;51.112;6.776;2023-03-16T03:33:26;4.10;1.00
19868;DHT22;10096;51.112;6.776;2023-03-16T03:35:54;4.10;1.00
19868;DHT22;10096;51.112;6.776;2023-03-16T03:38:22;4.00;1.00
19868;DHT22;10096;51.112;6.776;2023-03-16T03:40:53;4.00;1.00
19868;DHT22;10096;51.112;6.776;2023-03-16T03:43:23;4.00;1.00
19868;DHT22;10096;51.112;6.776;2023-03-16T03:45:54;4.00;1.00
19868;DHT22;10096;51.112;6.776;2023-03-16T03:48:22;4.10;1.00
19868;DHT22;10096;51.112;6.776;2023-03-16T03:50:49;4.00;1.00
19868;DHT22;10096;51.112;6.776;2023-03-16T03:53:16;4.00;1.00
19868;DHT22;10096;51.112;6.776;2023-03-16T03:55:43;4.00;1.00
19868;DHT22;10096;51.112;6.776;2023-03-16T03:58:11;4.30;1.00
19868;DHT22;10096;51.112;6.776;2023-03-16T04:00:38;4.00;1.00
19868;DHT22;10096;51.112;6.776;2023-03-16T04:03:05;4.00;1.00
19868;DHT22;10096;51.112;6.776;2023-03-16T04:05:32;4.10;1.00
19868;DHT22;10096;51.112;6.776;2023-03-16T04:08:00;4.10;1.00
19868;DHT22;10096;51.112;6.776;2023-03-16T04:10:28;4.10;1.00
19868;DHT22;10096;51.112;6.776;2023-03-16T04:12:56;4.20;1.00
19868;DHT22;10096;51.112;6.776;2023-03-16T04:15:25;4.10;1.00
19868;DHT22;10096;51.112;6.776;2023-03-16T04:17:52;4.20;1.00
19868;DHT22;10096;51.112;6.776;2023-03-16T04:20:19;4.20;1.00
19868;DHT22;10096;51.112;6.776;2023-03-16T04:22:48;4.10;1.00
19868;DHT22;10096;51.112;6.776;2023-03-16T04:25:24;4.20;1.00
19868;DHT22;10096;51.112;6.776;2023-03-16T04:27:52;4.10;1.00
19868;DHT22;10096;51.112;6.776;2023-03-16T04:30:19;4.10;1.00
19868;DHT22;10096;51.112;6.776;2023-03-16T04:32:49;4.30;1.00
19868;DHT22;10096;51.112;6.776;2023-03-16T04:35:19;4.00;1.00
19868;DHT22;10096;51.112;6.776;2023-03-16T04:37:47;4.10;1.00
19868;DHT22;10096;51.112;6.776;2023-03-16T04:40:15;4.30;1.00
19868;DHT22;10096;51.112;6.776;2023-03-16T04:42:42;4.00;1.00
19868;DHT22;10096;51.112;6.776;2023-03-16T04:45:10;4.00;1.00
19868;DHT22;10096;51.112;6.776;2023-03-16T04:47:37;4.10;1.00
19868;DHT22;10096;51.112;6.776;2023-03-16T04:50:08;4.10;1.00
19868;DHT22;10096;51.112;6.776;2023-03-16T04:52:38;4.20;1.00
19868;DHT22;10096;51.112;6.776;2023-03-16T04:55:06;4.00;1.00
19868;DHT22;10096;51.112;6.776;2023-03-16T04:57:33;4.10;1.00
19868;DHT22;10096;51.112;6.776;2023-03-16T05:00:06;4.30;1.00
19868;DHT22;10096;51.112;6.776;2023-03-16T05:02:37;4.30;1.00
19868;DHT22;10096;51.112;6.776;2023-03-16T05:05:06;4.10;1.00
19868;DHT22;10096;51.112;6.776;2023-03-16T05:07:33;4.20;1.00
19868;DHT22;10096;51.112;6.776;2023-03-16T05:10:00;4.10;1.00
19868;DHT22;10096;51.112;6.776;2023-03-16T05:12:30;4.10;1.00
19868;DHT22;10096;51.112;6.776;2023-03-16T05:14:57;4.20;1.00
19868;DHT22;10096;51.112;6.776;2023-03-16T05:17:25;4.20;1.00
19868;DHT22;10096;51.112;6.776;2023-03-16T05:19:52;4.20;1.00
19868;DHT22;10096;51.112;6.776;2023-03-16T05:22:21;4.20;1.00
19868;DHT22;10096;51.112;6.776;2023-03-16T05:24:48;4.30;1.00
19868;DHT22;10096;51.112;6.776;2023-03-16T05:27:15;4.20;1.00
19868;DHT22;10096;51.112;6.776;2023-03-16T05:29:43;4.20;1.00
19868;DHT22;10096;51.112;6.776;2023-03-16T05:32:11;4.30;1.00
19868;DHT22;10096;51.112;6.776;2023-03-16T05:34:38;4.30;1.00
19868;DHT22;10096;51.112;6.776;2023-03-16T05:37:08;4.30;1.00
19868;DHT22;10096;51.112;6.776;2023-03-16T05:39:37;4.30;1.00
19868;DHT22;10096;51.112;6.776;2023-03-16T05:42:04;4.30;1.00
19868;DHT22;10096;51.112;6.776;2023-03-16T05:44:31;4.30;1.00
19868;DHT22;10096;51.112;6.776;2023-03-16T05:46:59;4.30;1.00
19868;DHT22;10096;51.112;6.776;2023-03-16T05:49:26;4.30;1.00
19868;DHT22;10096;51.112;6.776;2023-03-16T05:51:53;4.40;1.00
19868;DHT22;10096;51.112;6.776;2023-03-16T05:54:24;4.40;1.00
19868;DHT22;10096;51.112;6.776;2023-03-16T05:57:01;4.50;1.00
19868;DHT22;10096;51.112;6.776;2023-03-16T05:59:33;4.40;1.00
19868;DHT22;10096;51.112;6.776;2023-03-16T06:02:03;4.50;1.00
19868;DHT22;10096;51.112;6.776;2023-03-16T06:04:30;4.40;1.00
19868;DHT22;10096;51.112;6.776;2023-03-16T06:06:57;4.60;1.00
19868;DHT22;10096;51.112;6.776;2023-03-16T06:09:24;4.50;1.00
19868;DHT22;10096;51.112;6.776;2023-03-16T06:11:50;4.50;1.00
19868;DHT22;10096;51.112;6.776;2023-03-16T06:14:19;4.50;1.00
19868;DHT22;10096;51.112;6.776;2023-03-16T06:16:48;4.60;1.00
19868;DHT22;10096;51.112;6.776;2023-03-16T06:19:15;4.60;1.00
19868;DHT22;10096;51.112;6.776;2023-03-16T06:21:42;4.70;1.00
19868;DHT22;10096;51.112;6.776;2023-03-16T06:24:09;4.60;1.00
19868;DHT22;10096;51.112;6.776;2023-03-16T06:26:37;4.80;1.00
19868;DHT22;10096;51.112;6.776;2023-03-16T06:29:05;5.00;1.00
19868;DHT22;10096;51.112;6.776;2023-03-16T06:31:41;4.90;1.00
19868;DHT22;10096;51.112;6.776;2023-03-16T06:34:07;4.90;1.00
19868;DHT22;10096;51.112;6.776;2023-03-16T06:36:36;5.00;1.00
19868;DHT22;10096;51.112;6.776;2023-03-16T06:39:04;5.00;1.00
19868;DHT22;10096;51.112;6.776;2023-03-16T06:41:32;5.10;1.00
19868;DHT22;10096;51.112;6.776;2023-03-16T06:44:02;5.10;1.00
19868;DHT22;10096;51.112;6.776;2023-03-16T06:46:31;5.10;1.00
19868;DHT22;10096;51.112;6.776;2023-03-16T06:49:03;5.20;1.00
19868;DHT22;10096;51.112;6.776;2023-03-16T06:51:30;5.10;1.00
19868;DHT22;10096;51.112;6.776;2023-03-16T06:53:57;5.10;1.00
19868;DHT22;10096;51.112;6.776;2023-03-16T06:56:30;5.10;1.00
19868;DHT22;10096;51.112;6.776;2023-03-16T06:58:57;5.30;1.00
19868;DHT22;10096;51.112;6.776;2023-03-16T07:01:25;5.20;1.00
19868;DHT22;10096;51.112;6.776;2023-03-16T07:03:53;5.30;1.00
19868;DHT22;10096;51.112;6.776;2023-03-16T07:06:22;5.30;1.00
19868;DHT22;10096;51.112;6.776;2023-03-16T07:08:50;5.30;1.00
19868;DHT22;10096;51.112;6.776;2023-03-16T07:11:19;5.50;1.00
19868;DHT22;10096;51.112;6.776;2023-03-16T07:13:47;5.50;1.00
19868;DHT22;10096;51.112;6.776;2023-03-16T07:16:21;5.50;1.00
19868;DHT22;10096;51.112;6.776;2023-03-16T07:18:49;5.50;1.00
19868;DHT22;10096;51.112;6.776;2023-03-16T07:21:16;5.60;1.00
19868;DHT22;10096;51.112;6.776;2023-03-16T07:23:45;5.70;1.00
19868;DHT22;10096;51.112;6.776;2023-03-16T07:26:15;5.80;1.00
19868;DHT22;10096;51.112;6.776;2023-03-16T07:28:43;5.90;1.00
19868;DHT22;10096;51.112;6.776;2023-03-16T07:31:10;5.80;1.00
19868;DHT22;10096;51.112;6.776;2023-03-16T07:33:39;5.90;1.00
19868;DHT22;10096;51.112;6.776;2023-03-16T07:36:07;6.00;1.00
19868;DHT22;10096;51.112;6.776;2023-03-16T07:38:35;6.00;1.00
19868;DHT22;10096;51.112;6.776;2023-03-16T07:41:05;6.20;1.00
19868;DHT22;10096;51.112;6.776;2023-03-16T07:43:34;6.30;1.00
19868;DHT22;10096;51.112;6.776;2023-03-16T07:46:01;6.40;1.00
19868;DHT22;10096;51.112;6.776;2023-03-16T07:48:28;6.40;1.00
19868;DHT22;10096;51.112;6.776;2023-03-16T07:50:57;6.70;1.00
19868;DHT22;10096;51.112;6.776;2023-03-16T07:53:24;6.90;1.00
19868;DHT22;10096;51.112;6.776;2023-03-16T07:55:50;6.80;1.00
19868;DHT22;10096;51.112;6.776;2023-03-16T07:58:21;7.10;1.00
19868;DHT22;10096;51.112;6.776;2023-03-16T08:00:48;6.90;1.00
19868;DHT22;10096;51.112;6.776;2023-03-16T08:03:15;7.20;1.00
19868;DHT22;10096;51.112;6.776;2023-03-16T08:05:42;7.30;1.00
19868;DHT22;10096;51.112;6.776;2023-03-16T08:08:09;7.10;1.00
19868;DHT22;10096;51.112;6.776;2023-03-16T08:10:36;7.20;1.00
19868;DHT22;10096;51.112;6.776;2023-03-16T08:13:03;7.30;1.00
19868;DHT22;10096;51.112;6.776;2023-03-16T08:15:31;7.10;1.00
19868;DHT22;10096;51.112;6.776;2023-03-16T08:17:59;7.40;1.00
19868;DHT22;10096;51.112;6.776;2023-03-16T08:20:29;7.60;1.00
19868;DHT22;10096;51.112;6.776;2023-03-16T08:22:56;7.50;1.00
19868;DHT22;10096;51.112;6.776;2023-03-16T08:25:24;7.70;1.00
19868;DHT22;10096;51.112;6.776;2023-03-16T08:27:51;7.50;1.00
19868;DHT22;10096;51.112;6.776;2023-03-16T08:30:18;7.40;1.00
19868;DHT22;10096;51.112;6.776;2023-03-16T08:32:48;7.40;1.00
19868;DHT22;10096;51.112;6.776;2023-03-16T08:35:16;7.40;1.00
19868;DHT22;10096;51.112;6.776;2023-03-16T08:37:43;7.40;1.00
19868;DHT22;10096;51.112;6.776;2023-03-16T08:40:11;7.50;1.00
19868;DHT22;10096;51.112;6.776;2023-03-16T08:42:44;7.40;1.00
19868;DHT22;10096;51.112;6.776;2023-03-16T08:45:11;7.70;1.00
19868;DHT22;10096;51.112;6.776;2023-03-16T08:47:39;7.70;1.00
19868;DHT22;10096;51.112;6.776;2023-03-16T08:50:10;7.40;1.00
19868;DHT22;10096;51.112;6.776;2023-03-16T08:52:38;7.70;1.00
19868;DHT22;10096;51.112;6.776;2023-03-16T08:55:07;7.90;1.00
19868;DHT22;10096;51.112;6.776;2023-03-16T08:57:35;7.60;1.00
19868;DHT22;10096;51.112;6.776;2023-03-16T09:00:04;7.60;1.00
19868;DHT22;10096;51.112;6.776;2023-03-16T09:02:37;7.60;1.00
19868;DHT22;10096;51.112;6.776;2023-03-16T09:05:08;7.70;1.00
19868;DHT22;10096;51.112;6.776;2023-03-16T09:07:36;7.80;1.00
19868;DHT22;10096;51.112;6.776;2023-03-16T09:10:04;7.70;1.00
19868;DHT22;10096;51.112;6.776;2023-03-16T09:12:34;7.80;1.00
19868;DHT22;10096;51.112;6.776;2023-03-16T09:15:01;7.90;1.00
19868;DHT22;10096;51.112;6.776;2023-03-16T09:17:28;8.20;1.00
19868;DHT22;10096;51.112;6.776;2023-03-16T09:19:55;8.20;1.00
19868;DHT22;10096;51.112;6.776;2023-03-16T09:22:24;8.10;1.00
19868;DHT22;10096;51.112;6.776;2023-03-16T09:24:51;8.30;1.00
19868;DHT22;10096;51.112;6.776;2023-03-16T09:27:18;8.40;1.00
19868;DHT22;10096;51.112;6.776;2023-03-16T09:29:56;8.70;1.00
19868;DHT22;10096;51.112;6.776;2023-03-16T09:32:23;8.80;1.00
19868;DHT22;10096;51.112;6.776;2023-03-16T09:34:53;8.80;99.90
19868;DHT22;10096;51.112;6.776;2023-03-16T09:37:21;8.90;99.90
19868;DHT22;10096;51.112;6.776;2023-03-16T09:39:50;8.90;99.90
19868;DHT22;10096;51.112;6.776;2023-03-16T09:42:21;8.80;1.00
19868;DHT22;10096;51.112;6.776;2023-03-16T09:44:58;8.80;99.90
19868;DHT22;10096;51.112;6.776;2023-03-16T09:47:32;8.80;99.90
19868;DHT22;10096;51.112;6.776;2023-03-16T09:50:03;8.90;99.90
19868;DHT22;10096;51.112;6.776;2023-03-16T09:52:36;9.00;99.90
19868;DHT22;10096;51.112;6.776;2023-03-16T09:55:15;9.00;99.90
19868;DHT22;10096;51.112;6.776;2023-03-16T09:57:46;9.10;99.90
19868;DHT22;10096;51.112;6.776;2023-03-16T10:00:18;9.20;99.90
19868;DHT22;10096;51.112;6.776;2023-03-16T10:03:10;9.20;99.90
19868;DHT22;10096;51.112;6.776;2023-03-16T10:05:41;9.30;99.90
19868;DHT22;10096;51.112;6.776;2023-03-16T10:08:12;9.30;99.90
19868;DHT22;10096;51.112;6.776;2023-03-16T10:10:57;9.20;99.90
19868;DHT22;10096;51.112;6.776;2023-03-16T10:13:34;9.10;99.90
19868;DHT22;10096;51.112;6.776;2023-03-16T10:16:13;8.90;99.90
19868;DHT22;10096;51.112;6.776;2023-03-16T10:18:46;9.10;99.90
19868;DHT22;10096;51.112;6.776;2023-03-16T10:21:15;9.20;99.90
19868;DHT22;10096;51.112;6.776;2023-03-16T10:23:43;9.40;99.90
19868;DHT22;10096;51.112;6.776;2023-03-16T10:26:16;9.30;99.90
19868;DHT22;10096;51.112;6.776;2023-03-16T10:28:44;9.30;99.90
19868;DHT22;10096;51.112;6.776;2023-03-16T10:31:12;9.30;99.90
19868;DHT22;10096;51.112;6.776;2023-03-16T10:33:42;9.60;99.90
19868;DHT22;10096;51.112;6.776;2023-03-16T10:36:13;9.70;99.90
19868;DHT22;10096;51.112;6.776;2023-03-16T10:38:45;9.60;99.90
19868;DHT22;10096;51.112;6.776;2023-03-16T10:41:30;9.70;99.90
19868;DHT22;10096;51.112;6.776;2023-03-16T10:43:59;10.00;99.90
19868;DHT22;10096;51.112;6.776;2023-03-16T10:46:36;10.00;99.90
19868;DHT22;10096;51.112;6.776;2023-03-16T10:49:16;9.90;99.90
19868;DHT22;10096;51.112;6.776;2023-03-16T10:51:45;10.20;99.90
19868;DHT22;10096;51.112;6.776;2023-03-16T10:54:35;10.20;99.90
19868;DHT22;10096;51.112;6.776;2023-03-16T11:00:48;10.50;99.90
19868;DHT22;10096;51.112;6.776;2023-03-16T11:03:21;10.60;99.90
19868;DHT22;10096;51.112;6.776;2023-03-16T11:05:57;10.50;99.90
19868;DHT22;10096;51.112;6.776;2023-03-16T11:08:26;10.50;99.90
19868;DHT22;10096;51.112;6.776;2023-03-16T11:10:57;10.40;99.90
19868;DHT22;10096;51.112;6.776;2023-03-16T11:16:50;10.80;99.90
19868;DHT22;10096;51.112;6.776;2023-03-16T11:19:23;11.10;99.90
19868;DHT22;10096;51.112;6.776;2023-03-16T11:21:56;11.20;99.90
19868;DHT22;10096;51.112;6.776;2023-03-16T11:24:36;11.10;99.90
19868;DHT22;10096;51.112;6.776;2023-03-16T11:27:14;11.10;99.90
19868;DHT22;10096;51.112;6.776;2023-03-16T11:32:36;10.40;99.90
19868;DHT22;10096;51.112;6.776;2023-03-16T11:35:17;10.50;99.90
19868;DHT22;10096;51.112;6.776;2023-03-16T11:37:58;10.50;99.90
19868;DHT22;10096;51.112;6.776;2023-03-16T11:40:37;10.50;99.90
19868;DHT22;10096;51.112;6.776;2023-03-16T11:43:21;10.60;99.90
19868;DHT22;10096;51.112;6.776;2023-03-16T11:46:02;10.60;99.90
19868;DHT22;10096;51.112;6.776;2023-03-16T11:48:36;10.50;99.90
19868;DHT22;10096;51.112;6.776;2023-03-16T11:51:05;10.70;99.90
19868;DHT22;10096;51.112;6.776;2023-03-16T11:53:45;10.60;99.90
19868;DHT22;10096;51.112;6.776;2023-03-16T11:56:27;10.60;99.90
19868;DHT22;10096;51.112;6.776;2023-03-16T11:59:23;10.60;99.90
19868;DHT22;10096;51.112;6.776;2023-03-16T12:02:19;10.80;99.90
19868;DHT22;10096;51.112;6.776;2023-03-16T12:04:57;11.00;99.90
19868;DHT22;10096;51.112;6.776;2023-03-16T12:07:41;11.00;99.90
19868;DHT22;10096;51.112;6.776;2023-03-16T12:10:21;11.20;99.90
19868;DHT22;10096;51.112;6.776;2023-03-16T12:13:01;11.40;99.90
19868;DHT22;10096;51.112;6.776;2023-03-16T12:15:34;11.50;99.90
19868;DHT22;10096;51.112;6.776;2023-03-16T12:18:11;11.60;99.90
19868;DHT22;10096;51.112;6.776;2023-03-16T12:20:45;11.70;99.90
19868;DHT22;10096;51.112;6.776;2023-03-16T12:23:32;11.60;99.90
19868;DHT22;10096;51.112;6.776;2023-03-16T12:26:13;11.60;99.90
19868;DHT22;10096;51.112;6.776;2023-03-16T12:28:44;11.90;99.90
19868;DHT22;10096;51.112;6.776;2023-03-16T12:31:15;12.10;99.90
19868;DHT22;10096;51.112;6.776;2023-03-16T12:34:01;12.00;99.90
19868;DHT22;10096;51.112;6.776;2023-03-16T12:36:44;11.90;99.90
19868;DHT22;10096;51.112;6.776;2023-03-16T12:39:16;11.90;99.90
19868;DHT22;10096;51.112;6.776;2023-03-16T12:41:55;11.80;99.90
19868;DHT22;10096;51.112;6.776;2023-03-16T12:44:30;11.80;99.90
19868;DHT22;10096;51.112;6.776;2023-03-16T12:47:09;11.80;99.90
19868;DHT22;10096;51.112;6.776;2023-03-16T12:49:40;11.90;99.90
19868;DHT22;10096;51.112;6.776;2023-03-16T12:52:11;12.00;99.90
19868;DHT22;10096;51.112;6.776;2023-03-16T12:54:48;12.00;99.90
19868;DHT22;10096;51.112;6.776;2023-03-16T12:57:16;11.90;99.90
19868;DHT22;10096;51.112;6.776;2023-03-16T12:59:45;12.00;99.90
19868;DHT22;10096;51.112;6.776;2023-03-16T13:02:16;12.00;99.90
19868;DHT22;10096;51.112;6.776;2023-03-16T13:04:48;12.00;99.90
19868;DHT22;10096;51.112;6.776;2023-03-16T13:07:26;12.00;99.90
19868;DHT22;10096;51.112;6.776;2023-03-16T13:09:57;12.10;99.90
19868;DHT22;10096;51.112;6.776;2023-03-16T13:12:29;12.30;99.90
19868;DHT22;10096;51.112;6.776;2023-03-16T13:15:00;12.20;99.90
19868;DHT22;10096;51.112;6.776;2023-03-16T13:17:30;12.30;99.90
19868;DHT22;10096;51.112;6.776;2023-03-16T13:20:05;12.10;99.90
19868;DHT22;10096;51.112;6.776;2023-03-16T13:22:46;12.20;99.90
19868;DHT22;10096;51.112;6.776;2023-03-16T13:25:34;12.10;99.90
19868;DHT22;10096;51.112;6.776;2023-03-16T13:28:05;12.20;99.90
19868;DHT22;10096;51.112;6.776;2023-03-16T13:30:34;12.10;99.90
19868;DHT22;10096;51.112;6.776;2023-03-16T13:33:16;12.20;99.90
19868;DHT22;10096;51.112;6.776;2023-03-16T13:35:45;12.10;99.90
19868;DHT22;10096;51.112;6.776;2023-03-16T13:38:16;12.40;99.90
19868;DHT22;10096;51.112;6.776;2023-03-16T13:40:47;12.20;99.90
19868;DHT22;10096;51.112;6.776;2023-03-16T13:54:18;12.20;99.90
19868;DHT22;10096;51.112;6.776;2023-03-16T13:56:49;12.30;99.90
19868;DHT22;10096;51.112;6.776;2023-03-16T13:59:16;12.40;99.90
19868;DHT22;10096;51.112;6.776;2023-03-16T14:01:44;12.50;99.90
19868;DHT22;10096;51.112;6.776;2023-03-16T14:04:18;12.50;99.90
19868;DHT22;10096;51.112;6.776;2023-03-16T14:06:55;12.60;99.90
19868;DHT22;10096;51.112;6.776;2023-03-16T14:09:29;12.50;99.90
19868;DHT22;10096;51.112;6.776;2023-03-16T14:11:57;12.70;99.90
19868;DHT22;10096;51.112;6.776;2023-03-16T14:14:27;12.50;99.90
19868;DHT22;10096;51.112;6.776;2023-03-16T14:17:00;12.60;99.90
19868;DHT22;10096;51.112;6.776;2023-03-16T14:19:30;12.50;99.90
19868;DHT22;10096;51.112;6.776;2023-03-16T14:22:11;12.60;99.90
19868;DHT22;10096;51.112;6.776;2023-03-16T14:24:50;12.50;99.90
19868;DHT22;10096;51.112;6.776;2023-03-16T14:27:25;12.50;99.90
19868;DHT22;10096;51.112;6.776;2023-03-16T14:33:25;12.50;99.90
19868;DHT22;10096;51.112;6.776;2023-03-16T14:35:57;12.70;99.90
19868;DHT22;10096;51.112;6.776;2023-03-16T14:38:32;12.50;99.90
19868;DHT22;10096;51.112;6.776;2023-03-16T14:41:04;12.40;99.90
19868;DHT22;10096;51.112;6.776;2023-03-16T14:43:35;12.70;99.90
19868;DHT22;10096;51.112;6.776;2023-03-16T14:46:10;12.50;99.90
19868;DHT22;10096;51.112;6.776;2023-03-16T14:48:39;12.60;99.90
19868;DHT22;10096;51.112;6.776;2023-03-16T14:51:12;12.70;99.90
19868;DHT22;10096;51.112;6.776;2023-03-16T14:53:40;12.90;99.90
19868;DHT22;10096;51.112;6.776;2023-03-16T14:56:11;12.80;99.90
19868;DHT22;10096;51.112;6.776;2023-03-16T14:58:39;12.70;99.90
19868;DHT22;10096;51.112;6.776;2023-03-16T15:01:08;12.80;99.90
19868;DHT22;10096;51.112;6.776;2023-03-16T15:03:41;12.80;99.90
19868;DHT22;10096;51.112;6.776;2023-03-16T15:06:08;12.90;99.90
19868;DHT22;10096;51.112;6.776;2023-03-16T15:08:37;12.80;99.90
19868;DHT22;10096;51.112;6.776;2023-03-16T15:11:13;13.00;99.90
19868;DHT22;10096;51.112;6.776;2023-03-16T15:13:46;12.50;99.90
19868;DHT22;10096;51.112;6.776;2023-03-16T15:16:29;12.40;99.90
19868;DHT22;10096;51.112;6.776;2023-03-16T15:18:56;12.60;99.90
19868;DHT22;10096;51.112;6.776;2023-03-16T15:21:26;12.50;99.90
19868;DHT22;10096;51.112;6.776;2023-03-16T15:23:54;12.40;99.90
19868;DHT22;10096;51.112;6.776;2023-03-16T15:26:26;12.40;99.90
19868;DHT22;10096;51.112;6.776;2023-03-16T15:28:54;12.60;99.90
19868;DHT22;10096;51.112;6.776;2023-03-16T15:31:41;12.60;99.90
19868;DHT22;10096;51.112;6.776;2023-03-16T15:34:14;12.60;99.90
19868;DHT22;10096;51.112;6.776;2023-03-16T15:36:48;12.40;99.90
19868;DHT22;10096;51.112;6.776;2023-03-16T15:39:22;12.40;99.90
19868;DHT22;10096;51.112;6.776;2023-03-16T15:41:51;12.60;99.90
19868;DHT22;10096;51.112;6.776;2023-03-16T15:44:20;12.30;99.90
19868;DHT22;10096;51.112;6.776;2023-03-16T15:46:47;12.30;99.90
19868;DHT22;10096;51.112;6.776;2023-03-16T15:49:14;12.30;99.90
19868;DHT22;10096;51.112;6.776;2023-03-16T15:51:41;12.20;99.90
19868;DHT22;10096;51.112;6.776;2023-03-16T15:54:11;12.20;99.90
19868;DHT22;10096;51.112;6.776;2023-03-16T15:56:40;12.20;99.90
19868;DHT22;10096;51.112;6.776;2023-03-16T15:59:15;12.20;99.90
19868;DHT22;10096;51.112;6.776;2023-03-16T16:01:44;12.20;99.90
19868;DHT22;10096;51.112;6.776;2023-03-16T16:04:13;12.00;99.90
19868;DHT22;10096;51.112;6.776;2023-03-16T16:06:42;12.00;99.90
19868;DHT22;10096;51.112;6.776;2023-03-16T16:09:12;12.00;99.90
19868;DHT22;10096;51.112;6.776;2023-03-16T16:11:40;11.90;99.90
19868;DHT22;10096;51.112;6.776;2023-03-16T16:14:11;11.90;99.90
19868;DHT22;10096;51.112;6.776;2023-03-16T16:16:44;11.80;99.90
19868;DHT22;10096;51.112;6.776;2023-03-16T16:19:12;12.00;99.90
19868;DHT22;10096;51.112;6.776;2023-03-16T16:21:43;12.00;99.90
19868;DHT22;10096;51.112;6.776;2023-03-16T16:24:11;12.10;99.90
19868;DHT22;10096;51.112;6.776;2023-03-16T16:26:41;12.10;99.90
19868;DHT22;10096;51.112;6.776;2023-03-16T16:29:13;11.80;99.90
19868;DHT22;10096;51.112;6.776;2023-03-16T16:31:40;11.80;99.90
19868;DHT22;10096;51.112;6.776;2023-03-16T16:34:13;11.80;99.90
19868;DHT22;10096;51.112;6.776;2023-03-16T16:36:41;11.90;99.90